LIPX/VRN METAR and TAF weather

Enter ICAO airport designator
Station Type Date Time Source
LIPX METAR 2019/02/17 07:50 UTC NOAA

LIPX 170750Z 34001KT CAVOK 04/01 Q1029


Station Type Date Time Source
LIPX Decoded METAR 2019/02/17 07:50 UTC NOAA

Verona / Villafranca, Italy (LIPX) 45-23N 010-52E 68M
Feb 17, 2019 - 02:50 AM EST / 2019.02.17 0750 UTC
Wind: from the NNW (340 degrees) at 1 MPH (1 KT):0
Visibility: greater than 7 mile(s):0
Temperature: 39 F (4 C)
Dew Point: 33 F (1 C)
Relative Humidity: 80%
Pressure (altimeter): 30.39 in. Hg (1029 hPa)
ob: LIPX 170750Z 34001KT CAVOK 04/01 Q1029
cycle: 8

Station Type Date Time Source
LIPX TAF 2014/04/22 15:24 UTC NOAA

TAF LIPX 221400Z 2215/2324 VRB05KT 9999 SCT030 SCT070
TEMPO 2215/2218 SCT025CB SCT080 PROB30
TEMPO 2215/2218 TS


Example: see airport list